Metar Aviation Weather Data        EGKK Shoreham Airport
Temperature
13°C Temperature
12°C Dewpoint
94% Humidity



Wind
10 MPH
17 KM/H
4 M/S
9 KTS



190°
S
Current Conditions

Mostly Cloudy with Light Rain Mostly Cloudy , Light Rain
Pressure 999 (hPa) - 29.5 (inHg)
Visibility 5 (mile) - 8 (km)
Airport
Airport-code EGKK

Location: Shoreham Airport
Distance: 9 (mi)

Metar:
METAR EGKK 150820Z 19009KT 150V220 8000 -RA BKN010 13/12 Q0999

Time: 15-06-2024 09:20 BST